sensor_id;sensor_type;location;lat;lon;timestamp;temperature;humidity
530;DHT22;251;48.704;9.210;2022-09-19T00:01:07;9.50;59.20
530;DHT22;251;48.704;9.210;2022-09-19T00:03:36;9.60;60.80
530;DHT22;251;48.704;9.210;2022-09-19T00:06:03;9.40;59.70
530;DHT22;251;48.704;9.210;2022-09-19T00:08:30;9.60;64.10
530;DHT22;251;48.704;9.210;2022-09-19T00:11:00;9.30;62.90
530;DHT22;251;48.704;9.210;2022-09-19T00:13:28;9.40;62.10
530;DHT22;251;48.704;9.210;2022-09-19T00:15:54;9.60;61.90
530;DHT22;251;48.704;9.210;2022-09-19T00:18:22;9.20;60.30
530;DHT22;251;48.704;9.210;2022-09-19T00:20:49;9.60;61.80
530;DHT22;251;48.704;9.210;2022-09-19T00:23:17;9.10;63.40
530;DHT22;251;48.704;9.210;2022-09-19T00:26:05;9.20;61.80
530;DHT22;251;48.704;9.210;2022-09-19T00:28:32;9.20;61.20
530;DHT22;251;48.704;9.210;2022-09-19T00:31:00;9.20;62.60
530;DHT22;251;48.704;9.210;2022-09-19T00:33:30;9.20;61.70
530;DHT22;251;48.704;9.210;2022-09-19T00:35:58;9.20;64.00
530;DHT22;251;48.704;9.210;2022-09-19T00:38:27;9.40;63.40
530;DHT22;251;48.704;9.210;2022-09-19T00:40:54;9.30;61.80
530;DHT22;251;48.704;9.210;2022-09-19T00:43:24;9.20;59.80
530;DHT22;251;48.704;9.210;2022-09-19T00:45:52;9.10;58.20
530;DHT22;251;48.704;9.210;2022-09-19T00:48:21;9.20;62.50
530;DHT22;251;48.704;9.210;2022-09-19T00:50:53;9.20;57.10
530;DHT22;251;48.704;9.210;2022-09-19T00:53:23;9.20;62.20
530;DHT22;251;48.704;9.210;2022-09-19T00:55:53;9.10;61.60
530;DHT22;251;48.704;9.210;2022-09-19T00:58:28;9.00;61.00
530;DHT22;251;48.704;9.210;2022-09-19T01:00:55;9.10;60.20
530;DHT22;251;48.704;9.210;2022-09-19T01:03:23;9.10;62.40
530;DHT22;251;48.704;9.210;2022-09-19T01:05:58;9.10;61.80
530;DHT22;251;48.704;9.210;2022-09-19T01:08:44;9.10;59.70
530;DHT22;251;48.704;9.210;2022-09-19T01:11:29;9.10;56.90
530;DHT22;251;48.704;9.210;2022-09-19T01:14:07;8.70;57.10
530;DHT22;251;48.704;9.210;2022-09-19T01:16:40;9.20;58.20
530;DHT22;251;48.704;9.210;2022-09-19T01:19:23;8.80;59.80
530;DHT22;251;48.704;9.210;2022-09-19T01:22:03;8.80;57.50
530;DHT22;251;48.704;9.210;2022-09-19T01:24:46;8.60;60.20
530;DHT22;251;48.704;9.210;2022-09-19T01:27:40;8.80;57.80
530;DHT22;251;48.704;9.210;2022-09-19T01:30:12;8.70;56.40
530;DHT22;251;48.704;9.210;2022-09-19T01:32:47;8.40;55.80
530;DHT22;251;48.704;9.210;2022-09-19T01:35:21;8.50;60.60
530;DHT22;251;48.704;9.210;2022-09-19T01:37:54;8.70;58.30
530;DHT22;251;48.704;9.210;2022-09-19T01:40:23;8.40;58.70
530;DHT22;251;48.704;9.210;2022-09-19T01:42:56;8.50;60.50
530;DHT22;251;48.704;9.210;2022-09-19T01:45:28;8.40;59.10
530;DHT22;251;48.704;9.210;2022-09-19T01:48:03;8.40;58.40
530;DHT22;251;48.704;9.210;2022-09-19T01:50:47;8.40;59.80
530;DHT22;251;48.704;9.210;2022-09-19T01:53:27;8.40;58.70
530;DHT22;251;48.704;9.210;2022-09-19T01:56:28;8.40;60.40
530;DHT22;251;48.704;9.210;2022-09-19T01:59:08;8.50;62.70
530;DHT22;251;48.704;9.210;2022-09-19T02:01:48;8.40;61.10
530;DHT22;251;48.704;9.210;2022-09-19T02:04:19;8.30;58.80
530;DHT22;251;48.704;9.210;2022-09-19T02:06:50;8.60;57.60
530;DHT22;251;48.704;9.210;2022-09-19T02:09:22;8.60;58.40
530;DHT22;251;48.704;9.210;2022-09-19T02:11:51;8.30;58.20
530;DHT22;251;48.704;9.210;2022-09-19T02:14:22;8.70;57.80
530;DHT22;251;48.704;9.210;2022-09-19T02:17:02;8.70;57.50
530;DHT22;251;48.704;9.210;2022-09-19T02:19:31;8.70;54.50
530;DHT22;251;48.704;9.210;2022-09-19T02:22:02;8.70;53.20
530;DHT22;251;48.704;9.210;2022-09-19T02:24:31;8.50;53.20
530;DHT22;251;48.704;9.210;2022-09-19T02:27:03;8.50;53.90
530;DHT22;251;48.704;9.210;2022-09-19T02:29:36;8.50;52.60
530;DHT22;251;48.704;9.210;2022-09-19T02:32:08;8.40;51.80
530;DHT22;251;48.704;9.210;2022-09-19T02:34:35;8.40;52.30
530;DHT22;251;48.704;9.210;2022-09-19T02:37:06;8.40;51.80
530;DHT22;251;48.704;9.210;2022-09-19T02:39:43;8.40;52.90
530;DHT22;251;48.704;9.210;2022-09-19T02:42:23;8.50;52.30
530;DHT22;251;48.704;9.210;2022-09-19T02:45:04;8.40;50.80
530;DHT22;251;48.704;9.210;2022-09-19T02:47:39;8.50;51.80
530;DHT22;251;48.704;9.210;2022-09-19T02:50:15;8.40;52.60
530;DHT22;251;48.704;9.210;2022-09-19T02:52:43;8.30;54.00
530;DHT22;251;48.704;9.210;2022-09-19T02:55:20;8.40;53.60
530;DHT22;251;48.704;9.210;2022-09-19T02:57:52;8.30;55.30
530;DHT22;251;48.704;9.210;2022-09-19T03:00:20;8.20;54.40
530;DHT22;251;48.704;9.210;2022-09-19T03:02:51;8.10;54.50
530;DHT22;251;48.704;9.210;2022-09-19T03:05:26;8.20;54.10
530;DHT22;251;48.704;9.210;2022-09-19T03:07:57;8.20;55.00
530;DHT22;251;48.704;9.210;2022-09-19T03:10:27;8.10;55.90
530;DHT22;251;48.704;9.210;2022-09-19T03:13:10;8.00;57.90
530;DHT22;251;48.704;9.210;2022-09-19T03:15:41;8.10;58.90
530;DHT22;251;48.704;9.210;2022-09-19T03:18:17;8.10;60.60
530;DHT22;251;48.704;9.210;2022-09-19T03:20:47;8.10;60.50
530;DHT22;251;48.704;9.210;2022-09-19T03:23:18;8.10;61.00
530;DHT22;251;48.704;9.210;2022-09-19T03:25:46;8.10;61.30
530;DHT22;251;48.704;9.210;2022-09-19T03:28:13;8.10;60.50
530;DHT22;251;48.704;9.210;2022-09-19T03:30:45;7.90;57.30
530;DHT22;251;48.704;9.210;2022-09-19T03:33:12;8.10;58.20
530;DHT22;251;48.704;9.210;2022-09-19T03:35:43;8.00;56.60
530;DHT22;251;48.704;9.210;2022-09-19T03:38:15;8.10;61.20
530;DHT22;251;48.704;9.210;2022-09-19T03:40:42;8.10;59.60
530;DHT22;251;48.704;9.210;2022-09-19T03:43:09;8.10;59.70
530;DHT22;251;48.704;9.210;2022-09-19T03:45:36;8.00;59.50
530;DHT22;251;48.704;9.210;2022-09-19T03:48:03;8.10;60.60
530;DHT22;251;48.704;9.210;2022-09-19T03:50:30;7.60;64.90
530;DHT22;251;48.704;9.210;2022-09-19T03:53:13;8.10;64.60
530;DHT22;251;48.704;9.210;2022-09-19T03:55:39;8.00;63.50
530;DHT22;251;48.704;9.210;2022-09-19T03:58:11;7.80;60.60
530;DHT22;251;48.704;9.210;2022-09-19T04:00:38;7.80;60.60
530;DHT22;251;48.704;9.210;2022-09-19T04:03:05;8.10;60.90
530;DHT22;251;48.704;9.210;2022-09-19T04:05:33;8.00;62.40
530;DHT22;251;48.704;9.210;2022-09-19T04:08:01;8.20;59.40
530;DHT22;251;48.704;9.210;2022-09-19T04:10:29;8.00;59.30
530;DHT22;251;48.704;9.210;2022-09-19T04:12:55;7.80;60.30
530;DHT22;251;48.704;9.210;2022-09-19T04:15:24;7.80;61.20
530;DHT22;251;48.704;9.210;2022-09-19T04:17:50;7.90;60.80
530;DHT22;251;48.704;9.210;2022-09-19T04:20:18;8.10;60.80
530;DHT22;251;48.704;9.210;2022-09-19T04:23:18;8.00;62.60
530;DHT22;251;48.704;9.210;2022-09-19T04:26:14;7.90;63.50
530;DHT22;251;48.704;9.210;2022-09-19T04:28:42;8.30;59.40
530;DHT22;251;48.704;9.210;2022-09-19T04:31:10;8.40;61.40
530;DHT22;251;48.704;9.210;2022-09-19T04:33:39;8.50;57.80
530;DHT22;251;48.704;9.210;2022-09-19T04:36:07;8.50;62.50
530;DHT22;251;48.704;9.210;2022-09-19T04:38:34;8.40;63.20
530;DHT22;251;48.704;9.210;2022-09-19T04:41:07;8.40;60.60
530;DHT22;251;48.704;9.210;2022-09-19T04:43:35;8.40;60.00
530;DHT22;251;48.704;9.210;2022-09-19T04:46:09;8.40;60.30
530;DHT22;251;48.704;9.210;2022-09-19T04:48:44;8.40;61.90
530;DHT22;251;48.704;9.210;2022-09-19T04:51:12;8.50;61.60
530;DHT22;251;48.704;9.210;2022-09-19T04:53:39;8.40;59.20
530;DHT22;251;48.704;9.210;2022-09-19T04:56:07;8.40;60.30
530;DHT22;251;48.704;9.210;2022-09-19T04:58:40;8.40;59.30
530;DHT22;251;48.704;9.210;2022-09-19T05:01:10;8.50;56.20
530;DHT22;251;48.704;9.210;2022-09-19T05:03:37;8.40;56.70
530;DHT22;251;48.704;9.210;2022-09-19T05:06:04;8.40;55.50
530;DHT22;251;48.704;9.210;2022-09-19T05:08:33;8.40;55.60
530;DHT22;251;48.704;9.210;2022-09-19T05:11:07;8.50;56.00
530;DHT22;251;48.704;9.210;2022-09-19T05:13:36;8.50;57.20
530;DHT22;251;48.704;9.210;2022-09-19T05:16:07;8.50;57.90
530;DHT22;251;48.704;9.210;2022-09-19T05:18:40;8.80;57.10
530;DHT22;251;48.704;9.210;2022-09-19T05:21:14;8.70;55.70
530;DHT22;251;48.704;9.210;2022-09-19T05:23:41;8.30;53.90
530;DHT22;251;48.704;9.210;2022-09-19T05:26:10;8.50;55.50
530;DHT22;251;48.704;9.210;2022-09-19T05:28:39;8.40;58.00
530;DHT22;251;48.704;9.210;2022-09-19T05:31:07;8.30;57.70
530;DHT22;251;48.704;9.210;2022-09-19T05:33:40;8.80;57.80
530;DHT22;251;48.704;9.210;2022-09-19T05:36:12;8.70;55.40
530;DHT22;251;48.704;9.210;2022-09-19T05:38:52;8.70;53.50
530;DHT22;251;48.704;9.210;2022-09-19T05:41:38;8.70;52.00
530;DHT22;251;48.704;9.210;2022-09-19T05:44:15;8.70;53.70
530;DHT22;251;48.704;9.210;2022-09-19T05:46:47;8.70;54.60
530;DHT22;251;48.704;9.210;2022-09-19T05:49:14;8.30;53.00
530;DHT22;251;48.704;9.210;2022-09-19T05:51:40;8.80;57.20
530;DHT22;251;48.704;9.210;2022-09-19T05:54:12;8.70;53.10
530;DHT22;251;48.704;9.210;2022-09-19T05:56:58;8.70;54.30
530;DHT22;251;48.704;9.210;2022-09-19T05:59:26;8.80;57.10
530;DHT22;251;48.704;9.210;2022-09-19T06:01:54;8.80;53.60
530;DHT22;251;48.704;9.210;2022-09-19T06:04:36;8.80;54.90
530;DHT22;251;48.704;9.210;2022-09-19T06:07:03;8.80;56.40
530;DHT22;251;48.704;9.210;2022-09-19T06:09:31;8.60;56.50
530;DHT22;251;48.704;9.210;2022-09-19T06:12:00;8.70;55.90
530;DHT22;251;48.704;9.210;2022-09-19T06:14:27;8.70;54.70
530;DHT22;251;48.704;9.210;2022-09-19T06:16:55;9.10;56.10
530;DHT22;251;48.704;9.210;2022-09-19T06:19:34;9.00;54.60
530;DHT22;251;48.704;9.210;2022-09-19T06:22:05;9.10;52.70
530;DHT22;251;48.704;9.210;2022-09-19T06:24:32;9.10;53.00
530;DHT22;251;48.704;9.210;2022-09-19T06:27:00;8.80;51.00
530;DHT22;251;48.704;9.210;2022-09-19T06:29:27;9.10;53.70
530;DHT22;251;48.704;9.210;2022-09-19T06:32:14;9.10;52.50
530;DHT22;251;48.704;9.210;2022-09-19T06:34:43;9.00;49.70
530;DHT22;251;48.704;9.210;2022-09-19T06:37:11;9.10;51.90
530;DHT22;251;48.704;9.210;2022-09-19T06:39:38;9.00;52.60
530;DHT22;251;48.704;9.210;2022-09-19T06:42:43;9.20;51.80
530;DHT22;251;48.704;9.210;2022-09-19T06:45:25;9.20;52.30
530;DHT22;251;48.704;9.210;2022-09-19T06:48:00;9.30;50.80
530;DHT22;251;48.704;9.210;2022-09-19T06:50:53;9.10;51.60
530;DHT22;251;48.704;9.210;2022-09-19T06:53:22;9.50;51.80
530;DHT22;251;48.704;9.210;2022-09-19T06:55:55;9.50;49.70
530;DHT22;251;48.704;9.210;2022-09-19T06:58:22;9.50;51.40
530;DHT22;251;48.704;9.210;2022-09-19T07:00:52;9.40;48.40
530;DHT22;251;48.704;9.210;2022-09-19T07:03:20;9.50;49.70
530;DHT22;251;48.704;9.210;2022-09-19T07:05:57;9.40;47.40
530;DHT22;251;48.704;9.210;2022-09-19T07:08:51;9.40;49.60
530;DHT22;251;48.704;9.210;2022-09-19T07:11:19;9.50;50.60
530;DHT22;251;48.704;9.210;2022-09-19T07:13:48;9.60;50.60
530;DHT22;251;48.704;9.210;2022-09-19T07:16:17;9.50;49.30
530;DHT22;251;48.704;9.210;2022-09-19T07:18:45;9.50;49.40
530;DHT22;251;48.704;9.210;2022-09-19T07:21:30;9.60;47.90
530;DHT22;251;48.704;9.210;2022-09-19T07:23:59;9.50;48.90
530;DHT22;251;48.704;9.210;2022-09-19T07:26:43;9.40;47.30
530;DHT22;251;48.704;9.210;2022-09-19T07:29:13;9.50;50.00
530;DHT22;251;48.704;9.210;2022-09-19T07:31:40;9.80;49.30
530;DHT22;251;48.704;9.210;2022-09-19T07:34:08;9.80;47.20
530;DHT22;251;48.704;9.210;2022-09-19T07:36:44;9.70;47.60
530;DHT22;251;48.704;9.210;2022-09-19T07:39:10;9.70;49.80
530;DHT22;251;48.704;9.210;2022-09-19T07:41:56;10.00;47.10
530;DHT22;251;48.704;9.210;2022-09-19T07:44:52;9.90;48.30
530;DHT22;251;48.704;9.210;2022-09-19T07:47:41;10.10;43.70
530;DHT22;251;48.704;9.210;2022-09-19T07:50:29;9.80;44.50
530;DHT22;251;48.704;9.210;2022-09-19T07:52:59;9.80;44.70
530;DHT22;251;48.704;9.210;2022-09-19T07:55:28;9.90;45.60
530;DHT22;251;48.704;9.210;2022-09-19T07:57:58;9.90;44.40
530;DHT22;251;48.704;9.210;2022-09-19T08:00:36;10.00;41.10
530;DHT22;251;48.704;9.210;2022-09-19T08:03:07;10.40;41.40
530;DHT22;251;48.704;9.210;2022-09-19T08:05:38;10.10;43.90
530;DHT22;251;48.704;9.210;2022-09-19T08:08:06;10.30;41.90
530;DHT22;251;48.704;9.210;2022-09-19T08:10:33;10.50;43.40
530;DHT22;251;48.704;9.210;2022-09-19T08:13:00;10.40;42.30
530;DHT22;251;48.704;9.210;2022-09-19T08:15:29;10.20;42.60
530;DHT22;251;48.704;9.210;2022-09-19T08:18:01;10.30;41.20
530;DHT22;251;48.704;9.210;2022-09-19T08:20:30;10.60;42.00
530;DHT22;251;48.704;9.210;2022-09-19T08:23:00;10.30;41.60
530;DHT22;251;48.704;9.210;2022-09-19T08:25:29;10.60;41.80
530;DHT22;251;48.704;9.210;2022-09-19T08:27:56;10.50;40.00
530;DHT22;251;48.704;9.210;2022-09-19T08:30:23;10.30;40.50
530;DHT22;251;48.704;9.210;2022-09-19T08:32:51;10.50;40.00
530;DHT22;251;48.704;9.210;2022-09-19T08:35:19;10.30;39.20
530;DHT22;251;48.704;9.210;2022-09-19T08:37:52;10.50;39.70
530;DHT22;251;48.704;9.210;2022-09-19T08:40:23;10.60;39.20
530;DHT22;251;48.704;9.210;2022-09-19T08:43:00;10.80;39.10
530;DHT22;251;48.704;9.210;2022-09-19T08:45:39;10.40;39.10
530;DHT22;251;48.704;9.210;2022-09-19T08:48:11;10.60;38.30
530;DHT22;251;48.704;9.210;2022-09-19T08:50:41;10.60;40.40
530;DHT22;251;48.704;9.210;2022-09-19T08:53:23;10.90;39.80
530;DHT22;251;48.704;9.210;2022-09-19T08:55:52;10.90;37.50
530;DHT22;251;48.704;9.210;2022-09-19T08:58:23;11.10;38.60
530;DHT22;251;48.704;9.210;2022-09-19T09:01:16;11.00;37.50
530;DHT22;251;48.704;9.210;2022-09-19T09:04:11;11.00;37.60
530;DHT22;251;48.704;9.210;2022-09-19T09:06:54;11.00;36.20
530;DHT22;251;48.704;9.210;2022-09-19T09:09:29;11.10;35.70
530;DHT22;251;48.704;9.210;2022-09-19T09:12:03;11.20;34.70
530;DHT22;251;48.704;9.210;2022-09-19T09:14:44;11.30;37.40
530;DHT22;251;48.704;9.210;2022-09-19T09:17:21;11.00;35.40
530;DHT22;251;48.704;9.210;2022-09-19T09:20:07;11.10;35.90
530;DHT22;251;48.704;9.210;2022-09-19T09:22:43;11.30;37.60
530;DHT22;251;48.704;9.210;2022-09-19T09:25:26;11.30;36.60
530;DHT22;251;48.704;9.210;2022-09-19T09:28:04;11.30;35.70
530;DHT22;251;48.704;9.210;2022-09-19T09:30:49;11.00;36.80
530;DHT22;251;48.704;9.210;2022-09-19T09:33:21;11.40;35.70
530;DHT22;251;48.704;9.210;2022-09-19T09:35:56;11.40;37.30
530;DHT22;251;48.704;9.210;2022-09-19T09:38:29;11.10;32.00
530;DHT22;251;48.704;9.210;2022-09-19T09:41:09;11.50;32.80
530;DHT22;251;48.704;9.210;2022-09-19T09:44:02;11.20;32.30
530;DHT22;251;48.704;9.210;2022-09-19T09:46:47;11.70;30.50
530;DHT22;251;48.704;9.210;2022-09-19T09:49:16;11.60;31.90
530;DHT22;251;48.704;9.210;2022-09-19T09:51:51;11.70;31.80
530;DHT22;251;48.704;9.210;2022-09-19T09:54:31;11.70;31.40
530;DHT22;251;48.704;9.210;2022-09-19T09:57:30;11.80;31.40
530;DHT22;251;48.704;9.210;2022-09-19T10:00:07;11.80;31.00
530;DHT22;251;48.704;9.210;2022-09-19T10:03:01;11.90;28.80
530;DHT22;251;48.704;9.210;2022-09-19T10:05:52;12.10;29.00
530;DHT22;251;48.704;9.210;2022-09-19T10:08:24;12.00;29.50
530;DHT22;251;48.704;9.210;2022-09-19T10:11:03;12.10;29.80
530;DHT22;251;48.704;9.210;2022-09-19T10:13:35;11.80;29.10
530;DHT22;251;48.704;9.210;2022-09-19T10:16:07;11.70;29.50
530;DHT22;251;48.704;9.210;2022-09-19T10:18:42;12.10;29.60
530;DHT22;251;48.704;9.210;2022-09-19T10:21:12;11.80;28.80
530;DHT22;251;48.704;9.210;2022-09-19T10:23:46;11.60;28.90
530;DHT22;251;48.704;9.210;2022-09-19T10:26:26;12.00;29.30
530;DHT22;251;48.704;9.210;2022-09-19T10:28:55;11.90;30.00
530;DHT22;251;48.704;9.210;2022-09-19T10:31:33;12.10;27.70
530;DHT22;251;48.704;9.210;2022-09-19T10:34:22;11.90;28.40
530;DHT22;251;48.704;9.210;2022-09-19T10:36:53;12.00;28.20
530;DHT22;251;48.704;9.210;2022-09-19T10:39:22;12.10;28.30
530;DHT22;251;48.704;9.210;2022-09-19T10:41:49;12.00;27.30
530;DHT22;251;48.704;9.210;2022-09-19T10:44:18;12.00;26.60
530;DHT22;251;48.704;9.210;2022-09-19T10:46:52;12.20;26.90
530;DHT22;251;48.704;9.210;2022-09-19T10:49:49;12.30;27.30
530;DHT22;251;48.704;9.210;2022-09-19T10:52:24;12.20;26.40
530;DHT22;251;48.704;9.210;2022-09-19T10:54:58;12.10;26.60
530;DHT22;251;48.704;9.210;2022-09-19T10:57:38;12.40;26.50
530;DHT22;251;48.704;9.210;2022-09-19T11:00:23;12.70;27.40
530;DHT22;251;48.704;9.210;2022-09-19T11:03:02;12.70;27.80
530;DHT22;251;48.704;9.210;2022-09-19T11:05:33;12.80;25.80
530;DHT22;251;48.704;9.210;2022-09-19T11:08:01;12.80;25.60
530;DHT22;251;48.704;9.210;2022-09-19T11:10:37;12.70;25.70
530;DHT22;251;48.704;9.210;2022-09-19T11:13:21;12.80;26.10
530;DHT22;251;48.704;9.210;2022-09-19T11:16:02;12.50;25.50
530;DHT22;251;48.704;9.210;2022-09-19T11:18:51;12.70;26.20
530;DHT22;251;48.704;9.210;2022-09-19T11:21:37;12.60;25.50
530;DHT22;251;48.704;9.210;2022-09-19T11:24:30;12.50;27.10
530;DHT22;251;48.704;9.210;2022-09-19T11:27:14;12.40;26.10
530;DHT22;251;48.704;9.210;2022-09-19T11:29:54;12.60;25.70
530;DHT22;251;48.704;9.210;2022-09-19T11:32:36;13.00;25.90
530;DHT22;251;48.704;9.210;2022-09-19T11:35:22;13.00;24.10
530;DHT22;251;48.704;9.210;2022-09-19T11:38:03;13.20;25.30
530;DHT22;251;48.704;9.210;2022-09-19T11:40:48;13.20;23.00
530;DHT22;251;48.704;9.210;2022-09-19T11:43:29;13.20;23.50
530;DHT22;251;48.704;9.210;2022-09-19T11:46:09;13.10;23.10
530;DHT22;251;48.704;9.210;2022-09-19T11:49:02;13.00;24.10
530;DHT22;251;48.704;9.210;2022-09-19T11:51:41;13.00;24.50
530;DHT22;251;48.704;9.210;2022-09-19T11:54:29;13.20;24.80
530;DHT22;251;48.704;9.210;2022-09-19T11:57:08;13.20;25.30
530;DHT22;251;48.704;9.210;2022-09-19T11:59:51;12.90;25.00
530;DHT22;251;48.704;9.210;2022-09-19T12:02:41;12.90;24.20
530;DHT22;251;48.704;9.210;2022-09-19T12:05:21;12.80;24.30
530;DHT22;251;48.704;9.210;2022-09-19T12:08:01;13.20;24.40
530;DHT22;251;48.704;9.210;2022-09-19T12:10:33;12.90;25.50
530;DHT22;251;48.704;9.210;2022-09-19T12:13:09;12.90;25.40
530;DHT22;251;48.704;9.210;2022-09-19T12:15:45;12.80;26.80
530;DHT22;251;48.704;9.210;2022-09-19T12:18:19;13.10;26.60
530;DHT22;251;48.704;9.210;2022-09-19T12:20:51;13.10;26.70
530;DHT22;251;48.704;9.210;2022-09-19T12:23:24;12.80;27.10
530;DHT22;251;48.704;9.210;2022-09-19T12:26:18;12.70;28.20
530;DHT22;251;48.704;9.210;2022-09-19T12:28:54;12.90;29.20
530;DHT22;251;48.704;9.210;2022-09-19T12:31:24;12.80;29.90
530;DHT22;251;48.704;9.210;2022-09-19T12:33:56;13.10;28.30
530;DHT22;251;48.704;9.210;2022-09-19T12:36:40;13.20;28.50
530;DHT22;251;48.704;9.210;2022-09-19T12:39:14;12.90;26.80
530;DHT22;251;48.704;9.210;2022-09-19T12:41:47;13.20;27.90
530;DHT22;251;48.704;9.210;2022-09-19T12:44:22;12.90;27.30
530;DHT22;251;48.704;9.210;2022-09-19T12:46:55;13.10;26.80
530;DHT22;251;48.704;9.210;2022-09-19T12:49:49;13.30;26.40
530;DHT22;251;48.704;9.210;2022-09-19T12:52:25;13.30;28.90
530;DHT22;251;48.704;9.210;2022-09-19T12:55:00;13.30;26.70
530;DHT22;251;48.704;9.210;2022-09-19T12:57:40;13.20;26.50
530;DHT22;251;48.704;9.210;2022-09-19T13:00:11;13.50;26.80
530;DHT22;251;48.704;9.210;2022-09-19T13:02:42;13.80;25.20
530;DHT22;251;48.704;9.210;2022-09-19T13:05:14;13.80;24.00
530;DHT22;251;48.704;9.210;2022-09-19T13:07:47;13.70;22.80
530;DHT22;251;48.704;9.210;2022-09-19T13:10:20;13.60;22.90
530;DHT22;251;48.704;9.210;2022-09-19T13:12:55;13.60;22.90
530;DHT22;251;48.704;9.210;2022-09-19T13:15:27;13.70;26.50
530;DHT22;251;48.704;9.210;2022-09-19T13:17:57;13.70;29.20
530;DHT22;251;48.704;9.210;2022-09-19T13:20:44;13.60;30.30
530;DHT22;251;48.704;9.210;2022-09-19T13:23:30;13.20;36.50
530;DHT22;251;48.704;9.210;2022-09-19T13:26:14;13.30;38.40
530;DHT22;251;48.704;9.210;2022-09-19T13:28:48;12.80;34.30
530;DHT22;251;48.704;9.210;2022-09-19T13:31:16;13.10;36.40
530;DHT22;251;48.704;9.210;2022-09-19T13:33:46;12.90;35.60
530;DHT22;251;48.704;9.210;2022-09-19T13:36:17;12.80;31.90
530;DHT22;251;48.704;9.210;2022-09-19T13:39:02;12.80;35.90
530;DHT22;251;48.704;9.210;2022-09-19T13:41:34;12.80;34.60
530;DHT22;251;48.704;9.210;2022-09-19T13:44:11;12.80;36.30
530;DHT22;251;48.704;9.210;2022-09-19T13:46:50;12.80;31.20
530;DHT22;251;48.704;9.210;2022-09-19T13:49:23;12.70;32.90
530;DHT22;251;48.704;9.210;2022-09-19T13:51:59;13.10;35.20
530;DHT22;251;48.704;9.210;2022-09-19T13:54:59;12.90;32.00
530;DHT22;251;48.704;9.210;2022-09-19T13:57:30;12.90;31.30
530;DHT22;251;48.704;9.210;2022-09-19T13:59:59;13.10;33.60
530;DHT22;251;48.704;9.210;2022-09-19T14:02:28;12.90;28.90
530;DHT22;251;48.704;9.210;2022-09-19T14:05:03;13.20;28.80
530;DHT22;251;48.704;9.210;2022-09-19T14:07:41;13.30;29.40
530;DHT22;251;48.704;9.210;2022-09-19T14:10:18;13.50;27.60
530;DHT22;251;48.704;9.210;2022-09-19T14:12:59;13.30;27.20
530;DHT22;251;48.704;9.210;2022-09-19T14:16:04;13.20;29.00
530;DHT22;251;48.704;9.210;2022-09-19T14:18:47;13.00;29.60
530;DHT22;251;48.704;9.210;2022-09-19T14:24:36;13.30;25.90
530;DHT22;251;48.704;9.210;2022-09-19T14:27:16;13.30;25.70
530;DHT22;251;48.704;9.210;2022-09-19T14:29:51;13.50;25.80
530;DHT22;251;48.704;9.210;2022-09-19T14:32:28;13.50;26.90
530;DHT22;251;48.704;9.210;2022-09-19T14:35:30;13.30;28.90
530;DHT22;251;48.704;9.210;2022-09-19T14:38:30;13.50;28.30
530;DHT22;251;48.704;9.210;2022-09-19T14:41:03;13.50;28.70
530;DHT22;251;48.704;9.210;2022-09-19T14:44:04;13.60;26.20
530;DHT22;251;48.704;9.210;2022-09-19T14:46:38;13.60;25.40
530;DHT22;251;48.704;9.210;2022-09-19T14:49:18;13.30;26.60
530;DHT22;251;48.704;9.210;2022-09-19T14:51:55;13.20;26.90
530;DHT22;251;48.704;9.210;2022-09-19T14:54:29;13.40;27.20
530;DHT22;251;48.704;9.210;2022-09-19T14:56:59;13.60;29.80
530;DHT22;251;48.704;9.210;2022-09-19T14:59:28;13.40;28.00
530;DHT22;251;48.704;9.210;2022-09-19T15:02:07;13.40;31.40
530;DHT22;251;48.704;9.210;2022-09-19T15:04:39;13.60;32.70
530;DHT22;251;48.704;9.210;2022-09-19T15:07:09;13.20;37.10
530;DHT22;251;48.704;9.210;2022-09-19T15:09:38;13.00;42.40
530;DHT22;251;48.704;9.210;2022-09-19T15:12:12;13.20;41.70
530;DHT22;251;48.704;9.210;2022-09-19T15:14:47;13.00;43.70
530;DHT22;251;48.704;9.210;2022-09-19T15:17:18;13.00;45.60
530;DHT22;251;48.704;9.210;2022-09-19T15:19:48;12.90;46.70
530;DHT22;251;48.704;9.210;2022-09-19T15:22:28;12.90;48.50
530;DHT22;251;48.704;9.210;2022-09-19T15:25:00;12.80;51.50
530;DHT22;251;48.704;9.210;2022-09-19T15:27:31;12.50;51.00
530;DHT22;251;48.704;9.210;2022-09-19T15:30:08;12.50;49.50
530;DHT22;251;48.704;9.210;2022-09-19T15:32:37;12.80;51.50
530;DHT22;251;48.704;9.210;2022-09-19T15:35:08;12.50;51.50
530;DHT22;251;48.704;9.210;2022-09-19T15:37:42;12.70;55.30
530;DHT22;251;48.704;9.210;2022-09-19T15:40:14;12.00;57.60
530;DHT22;251;48.704;9.210;2022-09-19T15:42:42;12.00;56.40
530;DHT22;251;48.704;9.210;2022-09-19T15:45:37;12.30;52.90
530;DHT22;251;48.704;9.210;2022-09-19T15:48:13;12.00;61.30
530;DHT22;251;48.704;9.210;2022-09-19T15:50:42;12.00;74.30
530;DHT22;251;48.704;9.210;2022-09-19T15:53:19;12.10;83.40
530;DHT22;251;48.704;9.210;2022-09-19T15:56:02;12.10;90.90
530;DHT22;251;48.704;9.210;2022-09-19T15:58:32;12.10;91.00
530;DHT22;251;48.704;9.210;2022-09-19T16:01:07;12.20;91.80
530;DHT22;251;48.704;9.210;2022-09-19T16:03:39;12.00;91.60
530;DHT22;251;48.704;9.210;2022-09-19T16:06:21;12.00;94.20
530;DHT22;251;48.704;9.210;2022-09-19T16:09:02;12.30;94.70
530;DHT22;251;48.704;9.210;2022-09-19T16:11:34;12.00;93.70
530;DHT22;251;48.704;9.210;2022-09-19T16:14:06;12.10;93.10
530;DHT22;251;48.704;9.210;2022-09-19T16:16:36;12.30;93.00
530;DHT22;251;48.704;9.210;2022-09-19T16:19:04;12.20;92.40
530;DHT22;251;48.704;9.210;2022-09-19T16:21:33;12.10;86.90
530;DHT22;251;48.704;9.210;2022-09-19T16:24:02;12.30;78.30
530;DHT22;251;48.704;9.210;2022-09-19T16:26:31;12.00;86.10
530;DHT22;251;48.704;9.210;2022-09-19T16:28:59;12.20;90.10
530;DHT22;251;48.704;9.210;2022-09-19T16:31:27;12.10;88.90
530;DHT22;251;48.704;9.210;2022-09-19T16:34:00;12.10;75.30
530;DHT22;251;48.704;9.210;2022-09-19T16:36:29;12.10;79.30
530;DHT22;251;48.704;9.210;2022-09-19T16:39:18;12.00;79.00
530;DHT22;251;48.704;9.210;2022-09-19T16:41:57;12.10;80.10
530;DHT22;251;48.704;9.210;2022-09-19T16:44:39;12.10;83.50
530;DHT22;251;48.704;9.210;2022-09-19T16:47:16;12.30;91.50
530;DHT22;251;48.704;9.210;2022-09-19T16:49:43;12.00;92.80
530;DHT22;251;48.704;9.210;2022-09-19T16:52:21;11.70;85.10
530;DHT22;251;48.704;9.210;2022-09-19T16:54:49;11.60;75.00
530;DHT22;251;48.704;9.210;2022-09-19T16:57:17;11.70;85.50
530;DHT22;251;48.704;9.210;2022-09-19T16:59:45;11.50;87.00
530;DHT22;251;48.704;9.210;2022-09-19T17:02:18;11.40;89.00
530;DHT22;251;48.704;9.210;2022-09-19T17:04:46;11.50;89.10
530;DHT22;251;48.704;9.210;2022-09-19T17:07:13;11.20;90.50
530;DHT22;251;48.704;9.210;2022-09-19T17:09:41;11.30;92.00
530;DHT22;251;48.704;9.210;2022-09-19T17:12:09;10.90;90.70
530;DHT22;251;48.704;9.210;2022-09-19T17:14:37;11.10;94.50
530;DHT22;251;48.704;9.210;2022-09-19T17:17:04;11.00;98.90
530;DHT22;251;48.704;9.210;2022-09-19T17:19:30;11.40;99.90
530;DHT22;251;48.704;9.210;2022-09-19T17:21:57;11.30;99.90
530;DHT22;251;48.704;9.210;2022-09-19T17:24:24;11.40;99.90
530;DHT22;251;48.704;9.210;2022-09-19T17:26:53;11.30;99.90
530;DHT22;251;48.704;9.210;2022-09-19T17:29:20;11.40;99.90
530;DHT22;251;48.704;9.210;2022-09-19T17:31:47;11.30;99.90
530;DHT22;251;48.704;9.210;2022-09-19T17:34:15;11.40;99.90